sensor_id;sensor_type;location;lat;lon;timestamp;P1;durP1;ratioP1;P2;durP2;ratioP2
42110;SDS011;27766;52.174;5.456;2024-03-22T00:00:58;40.47;;;23.65;;
42110;SDS011;27766;52.174;5.456;2024-03-22T00:03:25;34.40;;;24.35;;
42110;SDS011;27766;52.174;5.456;2024-03-22T00:05:51;34.08;;;22.92;;
42110;SDS011;27766;52.174;5.456;2024-03-22T00:08:17;39.72;;;24.67;;
42110;SDS011;27766;52.174;5.456;2024-03-22T00:10:44;38.88;;;23.60;;
42110;SDS011;27766;52.174;5.456;2024-03-22T00:13:11;34.92;;;24.33;;
42110;SDS011;27766;52.174;5.456;2024-03-22T00:15:38;37.00;;;23.92;;
42110;SDS011;27766;52.174;5.456;2024-03-22T00:18:04;41.70;;;24.85;;
42110;SDS011;27766;52.174;5.456;2024-03-22T00:20:30;41.40;;;24.48;;
42110;SDS011;27766;52.174;5.456;2024-03-22T00:22:56;40.50;;;24.35;;
42110;SDS011;27766;52.174;5.456;2024-03-22T00:25:22;35.10;;;23.40;;
42110;SDS011;27766;52.174;5.456;2024-03-22T00:27:48;41.75;;;25.45;;
42110;SDS011;27766;52.174;5.456;2024-03-22T00:30:15;38.17;;;25.70;;
42110;SDS011;27766;52.174;5.456;2024-03-22T00:32:41;39.85;;;25.02;;
42110;SDS011;27766;52.174;5.456;2024-03-22T00:35:10;40.65;;;25.50;;
42110;SDS011;27766;52.174;5.456;2024-03-22T00:37:36;39.55;;;24.08;;
42110;SDS011;27766;52.174;5.456;2024-03-22T00:40:02;37.55;;;24.30;;
42110;SDS011;27766;52.174;5.456;2024-03-22T00:42:30;43.30;;;25.30;;
42110;SDS011;27766;52.174;5.456;2024-03-22T00:44:56;33.88;;;24.33;;
42110;SDS011;27766;52.174;5.456;2024-03-22T00:47:23;33.28;;;24.10;;
42110;SDS011;27766;52.174;5.456;2024-03-22T00:49:49;36.17;;;25.00;;
42110;SDS011;27766;52.174;5.456;2024-03-22T00:52:16;35.55;;;24.60;;
42110;SDS011;27766;52.174;5.456;2024-03-22T00:54:42;44.63;;;24.90;;
42110;SDS011;27766;52.174;5.456;2024-03-22T00:57:09;43.58;;;26.65;;
42110;SDS011;27766;52.174;5.456;2024-03-22T00:59:35;38.58;;;25.08;;
42110;SDS011;27766;52.174;5.456;2024-03-22T01:02:01;38.50;;;24.25;;
42110;SDS011;27766;52.174;5.456;2024-03-22T01:04:27;36.90;;;24.98;;
42110;SDS011;27766;52.174;5.456;2024-03-22T01:06:53;45.05;;;26.70;;
42110;SDS011;27766;52.174;5.456;2024-03-22T01:09:19;37.72;;;24.00;;
42110;SDS011;27766;52.174;5.456;2024-03-22T01:11:45;45.03;;;25.48;;
42110;SDS011;27766;52.174;5.456;2024-03-22T01:14:11;45.13;;;27.27;;
42110;SDS011;27766;52.174;5.456;2024-03-22T01:16:37;38.97;;;26.00;;
42110;SDS011;27766;52.174;5.456;2024-03-22T01:19:05;44.45;;;26.15;;
42110;SDS011;27766;52.174;5.456;2024-03-22T01:21:31;40.60;;;25.20;;
42110;SDS011;27766;52.174;5.456;2024-03-22T01:23:57;36.95;;;25.13;;
42110;SDS011;27766;52.174;5.456;2024-03-22T01:26:24;43.40;;;25.70;;
42110;SDS011;27766;52.174;5.456;2024-03-22T01:28:50;39.53;;;25.08;;
42110;SDS011;27766;52.174;5.456;2024-03-22T01:31:16;42.08;;;26.45;;
42110;SDS011;27766;52.174;5.456;2024-03-22T01:33:42;41.65;;;26.17;;
42110;SDS011;27766;52.174;5.456;2024-03-22T01:36:08;42.85;;;25.17;;
42110;SDS011;27766;52.174;5.456;2024-03-22T01:38:34;44.03;;;25.45;;
42110;SDS011;27766;52.174;5.456;2024-03-22T01:41:00;43.55;;;25.52;;
42110;SDS011;27766;52.174;5.456;2024-03-22T01:43:26;38.47;;;25.35;;
42110;SDS011;27766;52.174;5.456;2024-03-22T01:45:52;43.10;;;25.67;;
42110;SDS011;27766;52.174;5.456;2024-03-22T01:48:18;38.88;;;25.48;;
42110;SDS011;27766;52.174;5.456;2024-03-22T01:50:45;38.33;;;24.20;;
42110;SDS011;27766;52.174;5.456;2024-03-22T01:53:12;35.25;;;24.65;;
42110;SDS011;27766;52.174;5.456;2024-03-22T01:55:38;35.08;;;23.80;;
42110;SDS011;27766;52.174;5.456;2024-03-22T01:58:04;39.33;;;23.85;;
42110;SDS011;27766;52.174;5.456;2024-03-22T02:00:31;37.97;;;24.10;;
42110;SDS011;27766;52.174;5.456;2024-03-22T02:02:57;37.90;;;24.67;;
42110;SDS011;27766;52.174;5.456;2024-03-22T02:05:23;37.38;;;25.15;;
42110;SDS011;27766;52.174;5.456;2024-03-22T02:07:50;37.67;;;24.10;;
42110;SDS011;27766;52.174;5.456;2024-03-22T02:10:16;44.35;;;24.08;;
42110;SDS011;27766;52.174;5.456;2024-03-22T02:12:42;39.50;;;25.23;;
42110;SDS011;27766;52.174;5.456;2024-03-22T02:15:09;37.25;;;24.08;;
42110;SDS011;27766;52.174;5.456;2024-03-22T02:17:35;33.13;;;23.52;;
42110;SDS011;27766;52.174;5.456;2024-03-22T02:20:02;36.58;;;24.17;;
42110;SDS011;27766;52.174;5.456;2024-03-22T02:22:30;40.00;;;24.30;;
42110;SDS011;27766;52.174;5.456;2024-03-22T02:24:56;40.15;;;25.48;;
42110;SDS011;27766;52.174;5.456;2024-03-22T02:27:22;37.15;;;26.27;;
42110;SDS011;27766;52.174;5.456;2024-03-22T02:29:48;37.55;;;26.10;;
42110;SDS011;27766;52.174;5.456;2024-03-22T02:32:14;39.30;;;25.23;;
42110;SDS011;27766;52.174;5.456;2024-03-22T02:34:41;36.50;;;25.13;;
42110;SDS011;27766;52.174;5.456;2024-03-22T02:37:07;47.60;;;27.73;;
42110;SDS011;27766;52.174;5.456;2024-03-22T02:39:33;40.80;;;26.88;;
42110;SDS011;27766;52.174;5.456;2024-03-22T02:41:59;46.97;;;28.42;;
42110;SDS011;27766;52.174;5.456;2024-03-22T02:44:25;39.47;;;25.85;;
42110;SDS011;27766;52.174;5.456;2024-03-22T02:46:51;44.40;;;27.30;;
42110;SDS011;27766;52.174;5.456;2024-03-22T02:49:17;41.65;;;28.23;;
42110;SDS011;27766;52.174;5.456;2024-03-22T02:51:43;50.78;;;30.70;;
42110;SDS011;27766;52.174;5.456;2024-03-22T02:54:10;45.47;;;29.80;;
42110;SDS011;27766;52.174;5.456;2024-03-22T02:56:36;46.30;;;29.10;;
42110;SDS011;27766;52.174;5.456;2024-03-22T02:59:02;50.60;;;30.75;;
42110;SDS011;27766;52.174;5.456;2024-03-22T03:01:28;51.35;;;28.80;;
42110;SDS011;27766;52.174;5.456;2024-03-22T03:03:54;48.35;;;30.17;;
42110;SDS011;27766;52.174;5.456;2024-03-22T03:06:20;48.08;;;31.30;;
42110;SDS011;27766;52.174;5.456;2024-03-22T03:08:47;51.80;;;30.73;;
42110;SDS011;27766;52.174;5.456;2024-03-22T03:11:14;46.80;;;29.90;;
42110;SDS011;27766;52.174;5.456;2024-03-22T03:13:41;56.60;;;30.33;;
42110;SDS011;27766;52.174;5.456;2024-03-22T03:16:07;58.97;;;31.45;;
42110;SDS011;27766;52.174;5.456;2024-03-22T03:18:33;46.63;;;29.10;;
42110;SDS011;27766;52.174;5.456;2024-03-22T03:20:59;56.45;;;30.55;;
42110;SDS011;27766;52.174;5.456;2024-03-22T03:23:25;44.50;;;28.25;;
42110;SDS011;27766;52.174;5.456;2024-03-22T03:25:52;45.10;;;28.83;;
42110;SDS011;27766;52.174;5.456;2024-03-22T03:28:18;45.03;;;28.17;;
42110;SDS011;27766;52.174;5.456;2024-03-22T03:30:45;47.22;;;29.05;;
42110;SDS011;27766;52.174;5.456;2024-03-22T03:33:11;42.42;;;29.60;;
42110;SDS011;27766;52.174;5.456;2024-03-22T03:35:37;47.38;;;28.73;;
42110;SDS011;27766;52.174;5.456;2024-03-22T03:38:03;49.97;;;29.23;;
42110;SDS011;27766;52.174;5.456;2024-03-22T03:40:29;44.38;;;28.17;;
42110;SDS011;27766;52.174;5.456;2024-03-22T03:42:55;52.88;;;29.73;;
42110;SDS011;27766;52.174;5.456;2024-03-22T03:45:21;48.28;;;30.83;;
42110;SDS011;27766;52.174;5.456;2024-03-22T03:47:47;47.47;;;27.55;;
42110;SDS011;27766;52.174;5.456;2024-03-22T03:50:13;50.53;;;29.52;;
42110;SDS011;27766;52.174;5.456;2024-03-22T03:52:40;47.72;;;27.05;;
42110;SDS011;27766;52.174;5.456;2024-03-22T03:55:06;44.63;;;27.30;;
42110;SDS011;27766;52.174;5.456;2024-03-22T03:57:33;46.08;;;27.85;;
42110;SDS011;27766;52.174;5.456;2024-03-22T03:59:59;42.40;;;26.88;;
42110;SDS011;27766;52.174;5.456;2024-03-22T04:02:25;45.90;;;27.55;;
42110;SDS011;27766;52.174;5.456;2024-03-22T04:04:52;44.58;;;26.92;;
42110;SDS011;27766;52.174;5.456;2024-03-22T04:07:19;44.65;;;25.27;;
42110;SDS011;27766;52.174;5.456;2024-03-22T04:09:46;41.97;;;26.50;;
42110;SDS011;27766;52.174;5.456;2024-03-22T04:12:12;48.53;;;26.45;;
42110;SDS011;27766;52.174;5.456;2024-03-22T04:14:39;37.03;;;24.65;;
42110;SDS011;27766;52.174;5.456;2024-03-22T04:17:06;43.45;;;25.73;;
42110;SDS011;27766;52.174;5.456;2024-03-22T04:19:32;47.92;;;25.70;;
42110;SDS011;27766;52.174;5.456;2024-03-22T04:21:58;44.78;;;26.00;;
42110;SDS011;27766;52.174;5.456;2024-03-22T04:24:25;39.58;;;24.90;;
42110;SDS011;27766;52.174;5.456;2024-03-22T04:26:51;38.20;;;24.08;;
42110;SDS011;27766;52.174;5.456;2024-03-22T04:29:17;42.55;;;24.27;;
42110;SDS011;27766;52.174;5.456;2024-03-22T04:31:43;35.40;;;24.15;;
42110;SDS011;27766;52.174;5.456;2024-03-22T04:34:10;41.10;;;24.58;;
42110;SDS011;27766;52.174;5.456;2024-03-22T04:36:36;42.58;;;23.23;;
42110;SDS011;27766;52.174;5.456;2024-03-22T04:39:02;40.90;;;23.05;;
42110;SDS011;27766;52.174;5.456;2024-03-22T04:41:29;37.40;;;22.95;;
42110;SDS011;27766;52.174;5.456;2024-03-22T04:43:55;36.83;;;23.60;;
42110;SDS011;27766;52.174;5.456;2024-03-22T04:46:21;38.45;;;22.67;;
42110;SDS011;27766;52.174;5.456;2024-03-22T04:48:47;39.17;;;22.85;;
42110;SDS011;27766;52.174;5.456;2024-03-22T04:51:13;42.58;;;23.85;;
42110;SDS011;27766;52.174;5.456;2024-03-22T04:53:40;34.38;;;23.23;;
42110;SDS011;27766;52.174;5.456;2024-03-22T04:56:06;35.92;;;21.83;;
42110;SDS011;27766;52.174;5.456;2024-03-22T04:58:33;46.03;;;23.45;;
42110;SDS011;27766;52.174;5.456;2024-03-22T05:01:00;46.58;;;22.92;;
42110;SDS011;27766;52.174;5.456;2024-03-22T05:03:26;38.90;;;22.33;;
42110;SDS011;27766;52.174;5.456;2024-03-22T05:05:52;36.80;;;22.17;;
42110;SDS011;27766;52.174;5.456;2024-03-22T05:08:19;39.95;;;22.00;;
42110;SDS011;27766;52.174;5.456;2024-03-22T05:10:45;39.92;;;23.75;;
42110;SDS011;27766;52.174;5.456;2024-03-22T05:13:11;50.85;;;24.52;;
42110;SDS011;27766;52.174;5.456;2024-03-22T05:15:37;42.60;;;23.67;;
42110;SDS011;27766;52.174;5.456;2024-03-22T05:18:04;41.28;;;24.85;;
42110;SDS011;27766;52.174;5.456;2024-03-22T05:20:30;35.70;;;23.77;;
42110;SDS011;27766;52.174;5.456;2024-03-22T05:22:56;37.30;;;23.02;;
42110;SDS011;27766;52.174;5.456;2024-03-22T05:25:22;39.60;;;23.75;;
42110;SDS011;27766;52.174;5.456;2024-03-22T05:27:48;44.92;;;25.05;;
42110;SDS011;27766;52.174;5.456;2024-03-22T05:30:15;36.05;;;23.90;;
42110;SDS011;27766;52.174;5.456;2024-03-22T05:32:41;42.28;;;25.63;;
42110;SDS011;27766;52.174;5.456;2024-03-22T05:35:07;38.00;;;23.90;;
42110;SDS011;27766;52.174;5.456;2024-03-22T05:37:34;40.80;;;25.58;;
42110;SDS011;27766;52.174;5.456;2024-03-22T05:40:00;49.10;;;25.02;;
42110;SDS011;27766;52.174;5.456;2024-03-22T05:42:27;43.17;;;25.63;;
42110;SDS011;27766;52.174;5.456;2024-03-22T05:44:55;39.53;;;25.73;;
42110;SDS011;27766;52.174;5.456;2024-03-22T05:47:21;39.42;;;24.67;;
42110;SDS011;27766;52.174;5.456;2024-03-22T05:49:47;48.72;;;26.08;;
42110;SDS011;27766;52.174;5.456;2024-03-22T05:52:14;39.35;;;25.52;;
42110;SDS011;27766;52.174;5.456;2024-03-22T05:54:40;36.78;;;25.13;;
42110;SDS011;27766;52.174;5.456;2024-03-22T05:57:06;38.13;;;24.98;;
42110;SDS011;27766;52.174;5.456;2024-03-22T05:59:33;46.70;;;24.25;;
42110;SDS011;27766;52.174;5.456;2024-03-22T06:02:00;34.78;;;23.23;;
42110;SDS011;27766;52.174;5.456;2024-03-22T06:04:26;38.80;;;24.00;;
42110;SDS011;27766;52.174;5.456;2024-03-22T06:06:52;43.92;;;24.48;;
42110;SDS011;27766;52.174;5.456;2024-03-22T06:09:18;45.88;;;23.25;;
42110;SDS011;27766;52.174;5.456;2024-03-22T06:11:50;40.78;;;23.30;;
42110;SDS011;27766;52.174;5.456;2024-03-22T06:14:17;36.25;;;21.80;;
42110;SDS011;27766;52.174;5.456;2024-03-22T06:16:44;38.70;;;22.67;;
42110;SDS011;27766;52.174;5.456;2024-03-22T06:19:10;36.70;;;21.85;;
42110;SDS011;27766;52.174;5.456;2024-03-22T06:21:36;40.00;;;21.95;;
42110;SDS011;27766;52.174;5.456;2024-03-22T06:24:02;38.28;;;21.80;;
42110;SDS011;27766;52.174;5.456;2024-03-22T06:26:29;41.28;;;21.92;;
42110;SDS011;27766;52.174;5.456;2024-03-22T06:28:55;32.03;;;20.98;;
42110;SDS011;27766;52.174;5.456;2024-03-22T06:31:21;36.10;;;21.77;;
42110;SDS011;27766;52.174;5.456;2024-03-22T06:33:47;46.78;;;24.70;;
42110;SDS011;27766;52.174;5.456;2024-03-22T06:36:14;37.55;;;24.88;;
42110;SDS011;27766;52.174;5.456;2024-03-22T06:38:40;40.97;;;22.88;;
42110;SDS011;27766;52.174;5.456;2024-03-22T06:41:06;35.45;;;21.60;;
42110;SDS011;27766;52.174;5.456;2024-03-22T06:43:32;38.33;;;23.20;;
42110;SDS011;27766;52.174;5.456;2024-03-22T06:46:01;38.22;;;22.88;;
42110;SDS011;27766;52.174;5.456;2024-03-22T06:48:27;40.63;;;22.85;;
42110;SDS011;27766;52.174;5.456;2024-03-22T06:50:53;40.08;;;21.73;;
42110;SDS011;27766;52.174;5.456;2024-03-22T06:53:19;31.98;;;20.55;;
42110;SDS011;27766;52.174;5.456;2024-03-22T06:55:45;32.30;;;20.17;;
42110;SDS011;27766;52.174;5.456;2024-03-22T06:58:12;34.05;;;20.90;;
42110;SDS011;27766;52.174;5.456;2024-03-22T07:00:38;33.38;;;19.30;;
42110;SDS011;27766;52.174;5.456;2024-03-22T07:03:04;31.55;;;18.20;;
42110;SDS011;27766;52.174;5.456;2024-03-22T07:05:31;26.98;;;17.98;;
42110;SDS011;27766;52.174;5.456;2024-03-22T07:07:57;29.92;;;17.15;;
42110;SDS011;27766;52.174;5.456;2024-03-22T07:10:23;31.58;;;15.90;;
42110;SDS011;27766;52.174;5.456;2024-03-22T07:12:54;29.20;;;14.70;;
42110;SDS011;27766;52.174;5.456;2024-03-22T07:15:21;24.63;;;15.90;;
42110;SDS011;27766;52.174;5.456;2024-03-22T07:17:49;27.85;;;15.38;;
42110;SDS011;27766;52.174;5.456;2024-03-22T07:20:16;25.45;;;15.35;;
42110;SDS011;27766;52.174;5.456;2024-03-22T07:22:42;35.70;;;16.80;;
42110;SDS011;27766;52.174;5.456;2024-03-22T07:25:08;23.45;;;13.98;;
42110;SDS011;27766;52.174;5.456;2024-03-22T07:27:37;23.85;;;16.13;;
42110;SDS011;27766;52.174;5.456;2024-03-22T07:30:03;24.60;;;14.98;;
42110;SDS011;27766;52.174;5.456;2024-03-22T07:32:30;26.02;;;14.98;;
42110;SDS011;27766;52.174;5.456;2024-03-22T07:34:57;22.42;;;14.68;;
42110;SDS011;27766;52.174;5.456;2024-03-22T07:37:24;27.02;;;16.40;;
42110;SDS011;27766;52.174;5.456;2024-03-22T07:42:24;25.38;;;16.58;;
42110;SDS011;27766;52.174;5.456;2024-03-22T07:44:50;23.73;;;14.68;;
42110;SDS011;27766;52.174;5.456;2024-03-22T07:47:16;20.92;;;14.65;;
42110;SDS011;27766;52.174;5.456;2024-03-22T07:49:42;21.17;;;13.30;;
42110;SDS011;27766;52.174;5.456;2024-03-22T07:52:09;21.98;;;13.73;;
42110;SDS011;27766;52.174;5.456;2024-03-22T07:54:35;27.38;;;15.13;;
42110;SDS011;27766;52.174;5.456;2024-03-22T07:57:01;24.58;;;14.98;;
42110;SDS011;27766;52.174;5.456;2024-03-22T07:59:28;22.42;;;13.18;;
42110;SDS011;27766;52.174;5.456;2024-03-22T08:01:54;22.20;;;13.95;;
42110;SDS011;27766;52.174;5.456;2024-03-22T08:04:20;30.83;;;14.75;;
42110;SDS011;27766;52.174;5.456;2024-03-22T08:06:46;22.52;;;14.65;;
42110;SDS011;27766;52.174;5.456;2024-03-22T08:09:13;29.40;;;14.55;;
42110;SDS011;27766;52.174;5.456;2024-03-22T08:11:39;21.75;;;13.95;;
42110;SDS011;27766;52.174;5.456;2024-03-22T08:14:05;21.10;;;13.35;;
42110;SDS011;27766;52.174;5.456;2024-03-22T08:16:31;21.98;;;14.55;;
42110;SDS011;27766;52.174;5.456;2024-03-22T08:18:57;27.48;;;14.35;;
42110;SDS011;27766;52.174;5.456;2024-03-22T08:21:24;24.98;;;14.80;;
42110;SDS011;27766;52.174;5.456;2024-03-22T08:23:50;26.65;;;14.85;;
42110;SDS011;27766;52.174;5.456;2024-03-22T08:26:17;25.55;;;14.95;;
42110;SDS011;27766;52.174;5.456;2024-03-22T08:28:44;30.23;;;14.38;;
42110;SDS011;27766;52.174;5.456;2024-03-22T08:31:12;22.05;;;14.75;;
42110;SDS011;27766;52.174;5.456;2024-03-22T08:33:39;30.58;;;15.68;;
42110;SDS011;27766;52.174;5.456;2024-03-22T08:36:05;30.42;;;15.20;;
42110;SDS011;27766;52.174;5.456;2024-03-22T08:38:31;24.38;;;15.65;;
42110;SDS011;27766;52.174;5.456;2024-03-22T08:40:58;19.50;;;14.75;;
42110;SDS011;27766;52.174;5.456;2024-03-22T08:43:25;28.15;;;16.58;;
42110;SDS011;27766;52.174;5.456;2024-03-22T08:45:53;23.63;;;16.00;;
42110;SDS011;27766;52.174;5.456;2024-03-22T08:48:19;32.35;;;16.40;;
42110;SDS011;27766;52.174;5.456;2024-03-22T08:50:45;19.40;;;14.63;;
42110;SDS011;27766;52.174;5.456;2024-03-22T08:53:12;20.27;;;12.65;;
42110;SDS011;27766;52.174;5.456;2024-03-22T08:55:44;67.30;;;17.77;;
42110;SDS011;27766;52.174;5.456;2024-03-22T08:58:12;36.53;;;13.57;;
42110;SDS011;27766;52.174;5.456;2024-03-22T09:00:39;20.63;;;12.00;;
42110;SDS011;27766;52.174;5.456;2024-03-22T09:03:05;35.85;;;12.98;;
42110;SDS011;27766;52.174;5.456;2024-03-22T09:05:31;21.85;;;10.20;;
42110;SDS011;27766;52.174;5.456;2024-03-22T09:07:59;19.33;;;10.95;;
42110;SDS011;27766;52.174;5.456;2024-03-22T09:10:29;22.80;;;11.60;;
42110;SDS011;27766;52.174;5.456;2024-03-22T09:12:56;16.60;;;10.23;;
42110;SDS011;27766;52.174;5.456;2024-03-22T09:15:23;19.48;;;12.18;;
42110;SDS011;27766;52.174;5.456;2024-03-22T09:17:51;15.60;;;9.32;;
42110;SDS011;27766;52.174;5.456;2024-03-22T09:20:18;17.17;;;9.93;;
42110;SDS011;27766;52.174;5.456;2024-03-22T09:22:44;21.35;;;8.95;;
42110;SDS011;27766;52.174;5.456;2024-03-22T09:25:10;18.42;;;9.77;;
42110;SDS011;27766;52.174;5.456;2024-03-22T09:27:37;17.92;;;9.55;;
42110;SDS011;27766;52.174;5.456;2024-03-22T09:30:03;20.77;;;9.93;;
42110;SDS011;27766;52.174;5.456;2024-03-22T09:32:30;14.18;;;10.48;;
42110;SDS011;27766;52.174;5.456;2024-03-22T09:34:57;14.30;;;9.55;;
42110;SDS011;27766;52.174;5.456;2024-03-22T09:37:23;14.05;;;8.45;;
42110;SDS011;27766;52.174;5.456;2024-03-22T09:39:49;13.57;;;8.40;;
42110;SDS011;27766;52.174;5.456;2024-03-22T09:42:16;15.15;;;9.20;;
42110;SDS011;27766;52.174;5.456;2024-03-22T09:44:49;16.90;;;9.45;;
42110;SDS011;27766;52.174;5.456;2024-03-22T09:47:17;11.63;;;7.80;;
42110;SDS011;27766;52.174;5.456;2024-03-22T09:49:44;11.32;;;7.53;;
42110;SDS011;27766;52.174;5.456;2024-03-22T09:52:12;11.55;;;7.45;;
42110;SDS011;27766;52.174;5.456;2024-03-22T09:54:43;19.08;;;7.55;;
42110;SDS011;27766;52.174;5.456;2024-03-22T09:57:11;15.13;;;7.72;;
42110;SDS011;27766;52.174;5.456;2024-03-22T09:59:44;15.75;;;8.80;;
42110;SDS011;27766;52.174;5.456;2024-03-22T10:02:12;13.88;;;7.72;;
42110;SDS011;27766;52.174;5.456;2024-03-22T10:04:40;9.95;;;6.72;;
42110;SDS011;27766;52.174;5.456;2024-03-22T10:07:06;14.40;;;6.82;;
42110;SDS011;27766;52.174;5.456;2024-03-22T10:09:35;9.70;;;7.18;;
42110;SDS011;27766;52.174;5.456;2024-03-22T10:12:01;11.52;;;7.40;;
42110;SDS011;27766;52.174;5.456;2024-03-22T10:14:29;12.65;;;7.68;;
42110;SDS011;27766;52.174;5.456;2024-03-22T10:16:56;13.93;;;8.00;;
42110;SDS011;27766;52.174;5.456;2024-03-22T10:19:24;13.15;;;7.57;;
42110;SDS011;27766;52.174;5.456;2024-03-22T10:22:00;9.05;;;6.50;;
42110;SDS011;27766;52.174;5.456;2024-03-22T10:24:30;8.82;;;6.82;;
42110;SDS011;27766;52.174;5.456;2024-03-22T10:26:57;12.32;;;6.22;;
42110;SDS011;27766;52.174;5.456;2024-03-22T10:29:24;10.02;;;6.78;;
42110;SDS011;27766;52.174;5.456;2024-03-22T10:31:54;10.52;;;7.07;;
42110;SDS011;27766;52.174;5.456;2024-03-22T10:34:21;10.25;;;6.25;;
42110;SDS011;27766;52.174;5.456;2024-03-22T10:36:48;6.90;;;5.68;;
42110;SDS011;27766;52.174;5.456;2024-03-22T10:39:16;13.98;;;7.05;;
42110;SDS011;27766;52.174;5.456;2024-03-22T10:41:47;9.00;;;6.03;;
42110;SDS011;27766;52.174;5.456;2024-03-22T10:44:14;10.48;;;6.13;;
42110;SDS011;27766;52.174;5.456;2024-03-22T10:46:45;8.55;;;6.13;;
42110;SDS011;27766;52.174;5.456;2024-03-22T10:49:15;8.13;;;6.18;;
42110;SDS011;27766;52.174;5.456;2024-03-22T10:51:44;8.77;;;6.70;;
42110;SDS011;27766;52.174;5.456;2024-03-22T10:54:16;11.95;;;6.00;;
42110;SDS011;27766;52.174;5.456;2024-03-22T10:56:46;10.90;;;5.68;;
42110;SDS011;27766;52.174;5.456;2024-03-22T10:59:15;11.05;;;6.10;;
42110;SDS011;27766;52.174;5.456;2024-03-22T11:01:48;11.23;;;5.88;;
42110;SDS011;27766;52.174;5.456;2024-03-22T11:04:21;8.00;;;4.95;;
42110;SDS011;27766;52.174;5.456;2024-03-22T11:06:50;9.57;;;6.03;;
42110;SDS011;27766;52.174;5.456;2024-03-22T11:09:26;9.55;;;5.90;;
42110;SDS011;27766;52.174;5.456;2024-03-22T11:11:53;9.10;;;5.88;;
42110;SDS011;27766;52.174;5.456;2024-03-22T11:14:21;8.55;;;5.97;;
42110;SDS011;27766;52.174;5.456;2024-03-22T11:16:49;7.80;;;6.28;;
42110;SDS011;27766;52.174;5.456;2024-03-22T11:19:15;11.27;;;6.78;;
42110;SDS011;27766;52.174;5.456;2024-03-22T11:21:42;8.43;;;5.60;;
42110;SDS011;27766;52.174;5.456;2024-03-22T11:24:08;11.30;;;6.20;;
42110;SDS011;27766;52.174;5.456;2024-03-22T11:26:36;8.00;;;4.55;;
42110;SDS011;27766;52.174;5.456;2024-03-22T11:29:02;9.52;;;5.63;;
42110;SDS011;27766;52.174;5.456;2024-03-22T11:31:28;6.90;;;5.03;;
42110;SDS011;27766;52.174;5.456;2024-03-22T11:33:54;4.38;;;3.92;;
42110;SDS011;27766;52.174;5.456;2024-03-22T11:36:24;6.15;;;5.07;;
42110;SDS011;27766;52.174;5.456;2024-03-22T11:38:50;9.35;;;5.50;;
42110;SDS011;27766;52.174;5.456;2024-03-22T11:41:19;8.48;;;5.35;;
42110;SDS011;27766;52.174;5.456;2024-03-22T11:43:50;6.78;;;4.90;;
42110;SDS011;27766;52.174;5.456;2024-03-22T11:46:16;5.47;;;4.30;;
42110;SDS011;27766;52.174;5.456;2024-03-22T11:48:43;8.60;;;4.50;;
42110;SDS011;27766;52.174;5.456;2024-03-22T11:51:10;8.52;;;4.47;;
42110;SDS011;27766;52.174;5.456;2024-03-22T11:53:36;4.82;;;4.10;;
42110;SDS011;27766;52.174;5.456;2024-03-22T11:56:03;9.18;;;4.13;;
42110;SDS011;27766;52.174;5.456;2024-03-22T11:58:30;5.90;;;3.95;;
42110;SDS011;27766;52.174;5.456;2024-03-22T12:00:56;4.32;;;3.92;;
42110;SDS011;27766;52.174;5.456;2024-03-22T12:03:23;4.68;;;4.18;;
42110;SDS011;27766;52.174;5.456;2024-03-22T12:05:49;4.55;;;2.65;;
42110;SDS011;27766;52.174;5.456;2024-03-22T12:08:17;3.70;;;2.90;;
42110;SDS011;27766;52.174;5.456;2024-03-22T12:10:44;5.60;;;3.38;;
42110;SDS011;27766;52.174;5.456;2024-03-22T12:13:10;7.32;;;3.28;;
42110;SDS011;27766;52.174;5.456;2024-03-22T12:15:36;6.95;;;4.35;;
42110;SDS011;27766;52.174;5.456;2024-03-22T12:18:02;4.63;;;3.60;;
42110;SDS011;27766;52.174;5.456;2024-03-22T12:20:29;4.18;;;3.60;;
42110;SDS011;27766;52.174;5.456;2024-03-22T12:22:55;6.32;;;3.47;;
42110;SDS011;27766;52.174;5.456;2024-03-22T12:25:21;5.10;;;3.97;;
42110;SDS011;27766;52.174;5.456;2024-03-22T12:27:47;5.80;;;4.13;;
42110;SDS011;27766;52.174;5.456;2024-03-22T12:30:14;6.50;;;4.47;;
42110;SDS011;27766;52.174;5.456;2024-03-22T12:32:40;6.38;;;4.88;;
42110;SDS011;27766;52.174;5.456;2024-03-22T12:35:06;6.32;;;4.32;;
42110;SDS011;27766;52.174;5.456;2024-03-22T12:37:33;5.22;;;4.38;;
42110;SDS011;27766;52.174;5.456;2024-03-22T12:40:01;7.97;;;5.22;;
42110;SDS011;27766;52.174;5.456;2024-03-22T12:42:28;9.23;;;5.43;;
42110;SDS011;27766;52.174;5.456;2024-03-22T12:44:54;8.50;;;5.88;;
42110;SDS011;27766;52.174;5.456;2024-03-22T12:47:20;7.47;;;5.53;;
42110;SDS011;27766;52.174;5.456;2024-03-22T12:49:46;11.70;;;6.32;;
42110;SDS011;27766;52.174;5.456;2024-03-22T12:52:12;8.85;;;5.88;;
42110;SDS011;27766;52.174;5.456;2024-03-22T12:54:40;9.07;;;6.97;;
42110;SDS011;27766;52.174;5.456;2024-03-22T12:57:06;12.40;;;7.40;;
42110;SDS011;27766;52.174;5.456;2024-03-22T12:59:32;11.65;;;8.70;;
42110;SDS011;27766;52.174;5.456;2024-03-22T13:01:59;11.57;;;8.15;;
42110;SDS011;27766;52.174;5.456;2024-03-22T13:04:25;12.63;;;8.52;;
42110;SDS011;27766;52.174;5.456;2024-03-22T13:06:51;13.63;;;8.65;;
42110;SDS011;27766;52.174;5.456;2024-03-22T13:09:18;14.05;;;7.95;;
42110;SDS011;27766;52.174;5.456;2024-03-22T13:11:47;12.65;;;7.40;;
42110;SDS011;27766;52.174;5.456;2024-03-22T13:14:14;15.32;;;8.20;;
42110;SDS011;27766;52.174;5.456;2024-03-22T13:16:41;16.17;;;9.02;;
42110;SDS011;27766;52.174;5.456;2024-03-22T13:19:08;11.57;;;8.30;;
42110;SDS011;27766;52.174;5.456;2024-03-22T13:21:38;18.70;;;8.70;;
42110;SDS011;27766;52.174;5.456;2024-03-22T13:24:07;23.85;;;14.25;;
42110;SDS011;27766;52.174;5.456;2024-03-22T13:26:33;14.48;;;8.88;;
42110;SDS011;27766;52.174;5.456;2024-03-22T13:28:59;13.07;;;8.93;;
42110;SDS011;27766;52.174;5.456;2024-03-22T13:31:25;16.83;;;7.88;;
42110;SDS011;27766;52.174;5.456;2024-03-22T13:33:52;14.07;;;7.85;;
42110;SDS011;27766;52.174;5.456;2024-03-22T13:36:18;11.25;;;8.15;;
42110;SDS011;27766;52.174;5.456;2024-03-22T13:38:45;18.10;;;9.05;;
42110;SDS011;27766;52.174;5.456;2024-03-22T13:41:11;10.60;;;8.57;;
42110;SDS011;27766;52.174;5.456;2024-03-22T13:43:37;14.65;;;8.00;;
42110;SDS011;27766;52.174;5.456;2024-03-22T13:46:05;16.27;;;8.85;;
42110;SDS011;27766;52.174;5.456;2024-03-22T13:48:31;14.57;;;8.63;;
42110;SDS011;27766;52.174;5.456;2024-03-22T13:50:58;14.15;;;9.25;;
42110;SDS011;27766;52.174;5.456;2024-03-22T13:53:24;12.32;;;9.55;;
42110;SDS011;27766;52.174;5.456;2024-03-22T13:55:50;24.23;;;9.93;;
42110;SDS011;27766;52.174;5.456;2024-03-22T13:58:18;21.02;;;10.05;;
42110;SDS011;27766;52.174;5.456;2024-03-22T14:00:44;19.00;;;9.52;;
42110;SDS011;27766;52.174;5.456;2024-03-22T14:03:11;15.40;;;9.80;;
42110;SDS011;27766;52.174;5.456;2024-03-22T14:05:37;15.57;;;9.77;;
42110;SDS011;27766;52.174;5.456;2024-03-22T14:08:04;15.50;;;9.80;;
42110;SDS011;27766;52.174;5.456;2024-03-22T14:10:30;16.25;;;9.48;;
42110;SDS011;27766;52.174;5.456;2024-03-22T14:12:59;18.75;;;10.60;;
42110;SDS011;27766;52.174;5.456;2024-03-22T14:15:25;20.38;;;11.70;;
42110;SDS011;27766;52.174;5.456;2024-03-22T14:17:54;17.92;;;10.25;;
42110;SDS011;27766;52.174;5.456;2024-03-22T14:20:22;13.65;;;9.40;;
42110;SDS011;27766;52.174;5.456;2024-03-22T14:22:48;31.75;;;12.07;;
42110;SDS011;27766;52.174;5.456;2024-03-22T14:25:14;16.45;;;10.23;;
42110;SDS011;27766;52.174;5.456;2024-03-22T14:27:40;21.08;;;10.60;;